createdAt,value
2022-08-12T00:01:18.937Z,26.36
2022-08-12T00:02:58.616Z,26.34
2022-08-12T00:04:18.988Z,26.34
2022-08-12T00:05:38.953Z,26.32
2022-08-12T00:07:18.941Z,26.32
2022-08-12T00:08:38.804Z,26.30
2022-08-12T00:09:59.060Z,26.29
2022-08-12T00:11:19.449Z,26.26
2022-08-12T00:12:39.472Z,26.23
2022-08-12T00:13:59.934Z,26.21
2022-08-12T00:15:20.407Z,26.17
2022-08-12T00:16:40.094Z,26.16
2022-08-12T00:18:00.298Z,26.07
2022-08-12T00:19:21.106Z,26.05
2022-08-12T00:20:43.053Z,26.01
2022-08-12T00:22:03.009Z,25.98
2022-08-12T00:23:23.167Z,25.98
2022-08-12T00:24:43.447Z,25.98
2022-08-12T00:26:20.904Z,25.96
2022-08-12T00:27:44.605Z,25.96
2022-08-12T00:29:04.685Z,25.95
2022-08-12T00:30:25.149Z,25.95
2022-08-12T00:31:45.110Z,25.93
2022-08-12T00:33:05.230Z,25.94
2022-08-12T00:34:26.092Z,25.91
2022-08-12T00:35:47.103Z,25.90
2022-08-12T00:37:13.277Z,25.86
2022-08-12T00:38:34.223Z,25.84
2022-08-12T00:39:54.796Z,25.79
2022-08-12T00:41:14.787Z,25.77
2022-08-12T00:42:16.283Z,25.74
2022-08-12T00:43:17.756Z,25.73
2022-08-12T00:44:19.237Z,25.71
2022-08-12T00:45:23.875Z,25.70
2022-08-12T00:46:32.702Z,25.66
2022-08-12T00:47:34.371Z,25.66
2022-08-12T00:48:36.667Z,25.65
2022-08-12T00:49:38.187Z,25.66
2022-08-12T00:50:39.726Z,25.65
2022-08-12T00:51:59.737Z,25.65
2022-08-12T00:53:01.241Z,25.64
2022-08-12T00:54:02.759Z,25.63
2022-08-12T00:55:04.501Z,25.64
2022-08-12T00:56:06.403Z,25.61
2022-08-12T00:57:09.740Z,25.60
2022-08-12T00:58:11.214Z,25.58
2022-08-12T00:59:12.727Z,25.58
2022-08-12T01:00:18.474Z,25.57
2022-08-12T01:01:20.840Z,25.55
2022-08-12T01:02:24.025Z,25.52
2022-08-12T01:03:25.672Z,25.52
2022-08-12T01:04:46.603Z,25.46
2022-08-12T01:06:07.312Z,25.46
2022-08-12T01:07:27.545Z,25.44
2022-08-12T01:08:47.458Z,25.39
2022-08-12T01:10:07.986Z,25.40
2022-08-12T01:11:28.280Z,25.38
2022-08-12T01:12:29.929Z,25.32
2022-08-12T01:13:32.413Z,25.32
2022-08-12T01:14:33.919Z,25.31
2022-08-12T01:15:35.430Z,25.31
2022-08-12T01:16:36.951Z,25.31
2022-08-12T01:17:39.456Z,25.30
2022-08-12T01:18:42.099Z,25.27
2022-08-12T01:19:43.728Z,25.26
2022-08-12T01:20:50.025Z,25.23
2022-08-12T01:22:00.318Z,25.20
2022-08-12T01:23:08.631Z,25.18
2022-08-12T01:24:30.083Z,25.16
2022-08-12T01:25:32.319Z,25.15
2022-08-12T01:26:34.021Z,25.15
2022-08-12T01:27:35.978Z,25.15
2022-08-12T01:28:37.670Z,25.16
2022-08-12T01:29:41.907Z,25.14
2022-08-12T01:30:43.627Z,25.14
2022-08-12T01:31:45.275Z,25.13
2022-08-12T01:32:47.410Z,25.13
2022-08-12T01:34:05.460Z,25.13
2022-08-12T01:35:26.918Z,25.14
2022-08-12T01:36:29.017Z,25.12
2022-08-12T01:37:30.691Z,25.12
2022-08-12T01:38:33.048Z,25.10
2022-08-12T01:39:38.724Z,25.08
2022-08-12T01:41:01.453Z,25.08
2022-08-12T01:42:07.778Z,25.07
2022-08-12T01:43:10.137Z,25.05
2022-08-12T01:44:11.716Z,25.02
2022-08-12T01:45:13.415Z,25.01
2022-08-12T01:46:22.637Z,25.02
2022-08-12T01:47:39.328Z,25.02
2022-08-12T01:48:43.809Z,25.00
2022-08-12T01:50:05.266Z,25.00
2022-08-12T01:52:21.410Z,24.99
2022-08-12T01:52:48.266Z,24.97
2022-08-12T01:53:58.671Z,24.95
2022-08-12T01:55:01.031Z,24.93
2022-08-12T01:56:03.223Z,24.93
2022-08-12T01:57:11.097Z,24.93
2022-08-12T01:58:22.191Z,24.90
2022-08-12T01:59:49.489Z,24.86
2022-08-12T02:00:59.120Z,24.83
2022-08-12T02:02:00.831Z,24.82
2022-08-12T02:03:04.580Z,24.82
2022-08-12T02:04:30.658Z,24.79
2022-08-12T02:05:50.866Z,24.78
2022-08-12T02:07:11.158Z,24.70
2022-08-12T02:08:34.402Z,24.68
2022-08-12T02:10:49.845Z,24.68
2022-08-12T02:11:42.385Z,24.64
2022-08-12T02:13:00.491Z,24.62
2022-08-12T02:14:06.518Z,24.62
2022-08-12T02:15:24.299Z,24.58
2022-08-12T02:16:47.018Z,24.58
2022-08-12T02:17:55.298Z,24.57
2022-08-12T02:18:58.592Z,24.56
2022-08-12T02:20:03.155Z,24.54
2022-08-12T02:21:05.541Z,24.48
2022-08-12T02:22:13.135Z,24.46
2022-08-12T02:23:15.102Z,24.46
2022-08-12T02:24:18.916Z,24.45
2022-08-12T02:25:26.868Z,24.44
2022-08-12T02:26:30.199Z,24.38
2022-08-12T02:27:37.339Z,24.37
2022-08-12T02:28:38.929Z,24.36
2022-08-12T02:29:40.561Z,24.36
2022-08-12T02:30:42.720Z,24.36
2022-08-12T02:31:45.655Z,24.36
2022-08-12T02:32:48.317Z,24.35
2022-08-12T02:33:49.796Z,24.34
2022-08-12T02:34:51.399Z,24.34
2022-08-12T02:35:53.029Z,24.32
2022-08-12T02:36:56.049Z,24.31
2022-08-12T02:37:59.914Z,24.29
2022-08-12T02:39:01.567Z,24.31
2022-08-12T02:40:03.721Z,24.30
2022-08-12T02:41:05.306Z,24.28
2022-08-12T02:42:07.083Z,24.27
2022-08-12T02:43:12.188Z,24.26
2022-08-12T02:44:15.163Z,24.23
2022-08-12T02:45:16.731Z,24.22
2022-08-12T02:46:19.516Z,24.20
2022-08-12T02:47:59.277Z,24.18
2022-08-12T02:48:58.010Z,24.17
2022-08-12T02:49:59.504Z,24.16
2022-08-12T02:51:03.622Z,24.16
2022-08-12T02:52:05.220Z,24.15
2022-08-12T02:53:07.661Z,24.14
2022-08-12T02:54:09.134Z,24.14
2022-08-12T02:55:28.826Z,24.12
2022-08-12T02:56:40.561Z,24.10
2022-08-12T02:57:47.087Z,24.10
2022-08-12T02:58:48.963Z,24.08
2022-08-12T02:59:51.259Z,24.06
2022-08-12T03:00:52.882Z,24.05
2022-08-12T03:02:03.348Z,24.04
2022-08-12T03:03:05.814Z,24.03
2022-08-12T03:04:07.391Z,24.02
2022-08-12T03:05:23.395Z,24.01
2022-08-12T03:06:27.404Z,24.01
2022-08-12T03:07:56.604Z,23.91
2022-08-12T03:08:54.416Z,23.98
2022-08-12T03:10:13.890Z,23.95
2022-08-12T03:11:21.979Z,23.95
2022-08-12T03:12:25.057Z,23.93
2022-08-12T03:13:26.677Z,23.92
2022-08-12T03:14:28.438Z,23.91
2022-08-12T03:15:31.280Z,23.91
2022-08-12T03:16:33.383Z,23.91
2022-08-12T03:18:26.027Z,23.90
2022-08-12T03:19:20.507Z,23.90
2022-08-12T03:20:25.553Z,23.89
2022-08-12T03:21:55.506Z,23.89
2022-08-12T03:22:51.560Z,23.87
2022-08-12T03:23:53.722Z,23.86
2022-08-12T03:24:55.235Z,23.86
2022-08-12T03:25:58.554Z,23.85
2022-08-12T03:27:03.206Z,23.84
2022-08-12T03:28:04.953Z,23.84
2022-08-12T03:29:06.968Z,23.81
2022-08-12T03:30:08.788Z,23.82
2022-08-12T03:31:10.282Z,23.81
2022-08-12T03:32:35.915Z,23.80
2022-08-12T03:33:36.519Z,23.81
2022-08-12T03:34:38.079Z,23.80
2022-08-12T03:35:41.966Z,23.80
2022-08-12T03:36:43.697Z,23.78
2022-08-12T03:37:45.624Z,23.77
2022-08-12T03:38:57.044Z,23.76
2022-08-12T03:39:58.599Z,23.75
2022-08-12T03:41:20.574Z,23.73
2022-08-12T03:42:28.096Z,23.73
2022-08-12T03:43:52.545Z,23.73
2022-08-12T03:45:15.785Z,23.72
2022-08-12T03:46:38.853Z,23.73
2022-08-12T03:48:02.735Z,23.69
2022-08-12T03:49:23.100Z,23.68
2022-08-12T03:50:43.287Z,23.68
2022-08-12T03:52:03.275Z,23.66
2022-08-12T03:53:24.853Z,23.64
2022-08-12T03:54:45.275Z,23.61
2022-08-12T03:56:05.659Z,23.57
2022-08-12T03:57:25.724Z,23.57
2022-08-12T03:58:45.666Z,23.57
2022-08-12T04:00:05.944Z,23.54
2022-08-12T04:01:07.485Z,23.54
2022-08-12T04:02:14.569Z,23.53
2022-08-12T04:03:34.900Z,23.54
2022-08-12T04:04:36.453Z,23.55
2022-08-12T04:05:54.581Z,23.52
2022-08-12T04:06:58.155Z,23.53
2022-08-12T04:08:03.552Z,23.53
2022-08-12T04:09:16.079Z,23.53
2022-08-12T04:10:18.539Z,23.52
2022-08-12T04:11:46.815Z,23.52
2022-08-12T04:13:17.022Z,23.50
2022-08-12T04:14:20.607Z,23.48
2022-08-12T04:15:25.816Z,23.48
2022-08-12T04:16:27.301Z,23.48
2022-08-12T04:17:30.519Z,23.45
2022-08-12T04:18:32.038Z,23.46
2022-08-12T04:19:33.526Z,23.46
2022-08-12T04:20:35.048Z,23.44
2022-08-12T04:21:37.452Z,23.45
2022-08-12T04:22:43.978Z,23.45
2022-08-12T04:23:48.594Z,23.48
2022-08-12T04:24:50.667Z,23.49
2022-08-12T04:25:54.639Z,23.51
2022-08-12T04:26:56.187Z,23.50
2022-08-12T04:27:57.684Z,23.50
2022-08-12T04:29:13.006Z,23.50
2022-08-12T04:30:30.524Z,23.50
2022-08-12T04:31:35.473Z,23.49
2022-08-12T04:32:42.305Z,23.47
2022-08-12T04:33:45.728Z,23.47
2022-08-12T04:34:47.210Z,23.45
2022-08-12T04:35:49.727Z,23.44
2022-08-12T04:36:51.295Z,23.44
2022-08-12T04:37:57.925Z,23.42
2022-08-12T04:39:02.141Z,23.42
2022-08-12T04:40:04.087Z,23.40
2022-08-12T04:41:05.950Z,23.38
2022-08-12T04:42:07.471Z,23.37
2022-08-12T04:44:00.627Z,23.36
2022-08-12T04:44:31.958Z,23.33
2022-08-12T04:45:34.706Z,23.33
2022-08-12T04:46:36.318Z,23.30
2022-08-12T04:47:38.098Z,23.28
2022-08-12T04:48:39.585Z,23.22
2022-08-12T04:49:41.174Z,23.18
2022-08-12T04:50:43.923Z,23.17
2022-08-12T04:51:57.694Z,23.16
2022-08-12T04:53:01.191Z,23.16
2022-08-12T04:54:03.527Z,23.16
2022-08-12T04:55:05.232Z,23.16
2022-08-12T04:56:06.893Z,23.17
2022-08-12T04:57:09.695Z,23.13
2022-08-12T04:58:12.209Z,23.16
2022-08-12T04:59:17.111Z,23.18
2022-08-12T05:00:18.719Z,23.19
2022-08-12T05:01:20.263Z,23.21
2022-08-12T05:02:22.900Z,23.21
2022-08-12T05:03:25.419Z,23.23
2022-08-12T05:04:26.908Z,23.24
2022-08-12T05:05:31.432Z,23.26
2022-08-12T05:06:36.893Z,23.28
2022-08-12T05:07:46.577Z,23.26
2022-08-12T05:08:56.357Z,23.27
2022-08-12T05:09:58.855Z,23.29
2022-08-12T05:11:01.803Z,23.30
2022-08-12T05:12:03.539Z,23.31
2022-08-12T05:13:05.839Z,23.33
2022-08-12T05:14:07.338Z,23.35
2022-08-12T05:15:19.538Z,23.37
2022-08-12T05:16:32.444Z,23.39
2022-08-12T05:17:37.596Z,23.41
2022-08-12T05:18:39.970Z,23.41
2022-08-12T05:19:44.054Z,23.43
2022-08-12T05:20:45.964Z,23.43
2022-08-12T05:21:48.202Z,23.44
2022-08-12T05:22:54.726Z,23.45
2022-08-12T05:23:59.585Z,23.48
2022-08-12T05:25:01.450Z,23.50
2022-08-12T05:26:04.971Z,23.53
2022-08-12T05:27:06.476Z,23.56
2022-08-12T05:28:08.020Z,23.56
2022-08-12T05:30:07.905Z,23.51
2022-08-12T05:30:34.446Z,23.61
2022-08-12T05:31:41.621Z,23.63
2022-08-12T05:32:49.830Z,23.66
2022-08-12T05:33:55.117Z,23.69
2022-08-12T05:34:56.641Z,23.71
2022-08-12T05:35:58.485Z,23.72
2022-08-12T05:37:00.121Z,23.73
2022-08-12T05:38:20.433Z,23.76
2022-08-12T05:39:22.192Z,23.76
2022-08-12T05:40:24.530Z,23.81
2022-08-12T05:41:30.356Z,23.81
2022-08-12T05:42:34.665Z,23.85
2022-08-12T05:43:36.428Z,23.87
2022-08-12T05:44:37.975Z,23.90
2022-08-12T05:45:44.637Z,23.90
2022-08-12T05:46:46.388Z,23.93
2022-08-12T05:47:53.997Z,23.95
2022-08-12T05:48:56.401Z,23.98
2022-08-12T05:49:59.377Z,24.00
2022-08-12T05:51:00.906Z,24.02
2022-08-12T05:52:02.827Z,24.05
2022-08-12T05:53:04.359Z,24.08
2022-08-12T05:54:05.977Z,24.12
2022-08-12T05:55:07.927Z,24.13
2022-08-12T05:56:20.533Z,24.15
2022-08-12T05:57:22.144Z,24.17
2022-08-12T05:58:23.667Z,24.20
2022-08-12T05:59:25.605Z,24.23
2022-08-12T06:00:29.224Z,24.26
2022-08-12T06:02:09.314Z,24.28
2022-08-12T06:02:56.999Z,24.33
2022-08-12T06:03:59.158Z,24.35
2022-08-12T06:05:00.715Z,24.40
2022-08-12T06:06:03.088Z,24.42
2022-08-12T06:07:58.962Z,24.47
2022-08-12T06:08:29.285Z,24.50
2022-08-12T06:09:31.080Z,24.51
2022-08-12T06:10:35.599Z,24.55
2022-08-12T06:11:37.291Z,24.58
2022-08-12T06:12:38.992Z,24.61
2022-08-12T06:13:53.949Z,24.63
2022-08-12T06:14:56.493Z,24.67
2022-08-12T06:15:58.025Z,24.70
2022-08-12T06:16:59.906Z,24.74
2022-08-12T06:18:14.051Z,24.75
2022-08-12T06:19:18.391Z,24.79
2022-08-12T06:20:26.131Z,24.82
2022-08-12T06:21:37.659Z,24.85
2022-08-12T06:22:41.225Z,24.87
2022-08-12T06:23:43.660Z,24.89
2022-08-12T06:24:45.159Z,24.94
2022-08-12T06:25:46.684Z,24.97
2022-08-12T06:26:48.199Z,24.99
2022-08-12T06:28:08.000Z,25.02
2022-08-12T06:29:09.922Z,25.06
2022-08-12T06:30:16.306Z,25.09
2022-08-12T06:31:27.210Z,25.10
2022-08-12T06:32:29.471Z,25.14
2022-08-12T06:33:55.452Z,25.17
2022-08-12T06:35:24.307Z,25.22
2022-08-12T06:36:21.131Z,25.26
2022-08-12T06:37:25.352Z,25.29
2022-08-12T06:38:27.545Z,25.32
2022-08-12T06:39:29.685Z,25.35
2022-08-12T06:40:50.003Z,25.38
2022-08-12T06:42:31.803Z,25.44
2022-08-12T06:44:04.293Z,25.45
2022-08-12T06:44:53.114Z,25.47
2022-08-12T06:45:57.476Z,25.50
2022-08-12T06:46:58.958Z,25.56
2022-08-12T06:48:06.491Z,25.59
2022-08-12T06:49:13.220Z,25.58
2022-08-12T06:50:16.460Z,25.62
2022-08-12T06:51:20.737Z,25.65
2022-08-12T06:52:24.880Z,25.68
2022-08-12T06:53:29.070Z,25.75
2022-08-12T06:54:32.397Z,25.76
2022-08-12T06:55:34.141Z,25.77
2022-08-12T06:58:09.853Z,25.84
2022-08-12T06:59:14.166Z,25.88
2022-08-12T07:00:16.029Z,25.91
2022-08-12T07:01:18.490Z,25.92
2022-08-12T07:02:20.975Z,25.95
2022-08-12T07:03:27.676Z,25.97
2022-08-12T07:04:38.432Z,26.02
2022-08-12T07:05:42.241Z,26.06
2022-08-12T07:06:44.864Z,26.10
2022-08-12T07:07:47.912Z,26.14
2022-08-12T07:08:49.731Z,26.16
2022-08-12T07:10:04.538Z,26.20
2022-08-12T07:11:10.065Z,26.25
2022-08-12T07:12:16.767Z,26.27
2022-08-12T07:13:18.245Z,26.28
2022-08-12T07:14:20.195Z,26.33
2022-08-12T07:15:25.218Z,26.37
2022-08-12T07:16:46.763Z,26.38
2022-08-12T07:17:48.266Z,26.42
2022-08-12T07:18:53.769Z,26.46
2022-08-12T07:19:59.216Z,26.48
2022-08-12T07:21:03.955Z,26.47
2022-08-12T07:22:06.568Z,26.49
2022-08-12T07:23:08.119Z,26.52
2022-08-12T07:24:09.592Z,26.55
2022-08-12T07:25:29.893Z,26.59
2022-08-12T07:26:43.709Z,26.67
2022-08-12T07:27:46.718Z,26.67
2022-08-12T07:28:49.392Z,26.71
2022-08-12T07:30:03.920Z,26.73
2022-08-12T07:31:08.988Z,26.75
2022-08-12T07:32:10.549Z,26.76
2022-08-12T07:33:12.359Z,26.78
2022-08-12T07:34:14.821Z,26.81
2022-08-12T07:35:17.586Z,26.85
2022-08-12T07:36:22.611Z,26.89
2022-08-12T07:37:24.129Z,26.90
2022-08-12T07:38:29.120Z,26.94
2022-08-12T07:39:31.498Z,26.99
2022-08-12T07:40:33.165Z,27.05
2022-08-12T07:41:34.647Z,27.10
2022-08-12T07:42:36.265Z,27.11
2022-08-12T07:44:04.007Z,27.11
2022-08-12T07:45:07.401Z,27.17
2022-08-12T07:46:10.330Z,27.20
2022-08-12T07:47:12.687Z,27.27
2022-08-12T07:48:14.609Z,27.30
2022-08-12T07:49:16.211Z,27.34
2022-08-12T07:50:23.435Z,27.39
2022-08-12T07:51:25.885Z,27.41
2022-08-12T07:52:28.119Z,27.43
2022-08-12T07:53:29.687Z,27.45
2022-08-12T07:54:31.162Z,27.49
2022-08-12T07:55:32.658Z,27.52
2022-08-12T07:56:34.814Z,27.54
2022-08-12T07:57:37.905Z,27.59
2022-08-12T07:58:41.991Z,27.63
2022-08-12T07:59:46.874Z,27.68
2022-08-12T08:00:53.063Z,27.73
2022-08-12T08:01:55.646Z,27.75
2022-08-12T08:02:58.858Z,27.79
2022-08-12T08:04:19.578Z,27.82
2022-08-12T08:05:22.274Z,27.91
2022-08-12T08:06:24.750Z,27.92
2022-08-12T08:07:27.375Z,27.93
2022-08-12T08:08:32.098Z,27.97
2022-08-12T08:09:33.617Z,28.04
2022-08-12T08:10:35.087Z,28.05
2022-08-12T08:11:55.324Z,28.11
2022-08-12T08:12:58.926Z,28.11
2022-08-12T08:14:04.289Z,28.20
2022-08-12T08:15:05.948Z,28.21
2022-08-12T08:16:07.703Z,28.26
2022-08-12T08:17:10.410Z,28.31
2022-08-12T08:18:17.133Z,28.36
2022-08-12T08:19:29.302Z,28.41
2022-08-12T08:20:33.837Z,28.46
2022-08-12T08:21:35.506Z,28.49
2022-08-12T08:22:50.222Z,28.52
2022-08-12T08:24:10.866Z,28.56
2022-08-12T08:25:35.338Z,28.58
2022-08-12T08:26:35.302Z,28.60
2022-08-12T08:27:45.411Z,28.57
2022-08-12T08:28:46.937Z,28.60
2022-08-12T08:29:48.535Z,28.63
2022-08-12T08:30:51.132Z,28.69
2022-08-12T08:31:58.627Z,28.74
2022-08-12T08:33:00.198Z,28.76
2022-08-12T08:34:49.108Z,28.80
2022-08-12T08:35:25.240Z,28.87
2022-08-12T08:36:30.278Z,28.90
2022-08-12T08:37:33.458Z,28.93
2022-08-12T08:38:40.780Z,28.98
2022-08-12T08:39:42.394Z,29.01
2022-08-12T08:41:03.732Z,29.07
2022-08-12T08:42:23.915Z,29.10
2022-08-12T08:43:25.478Z,29.15
2022-08-12T08:44:45.980Z,29.21
2022-08-12T08:45:48.655Z,29.26
2022-08-12T08:46:50.159Z,29.31
2022-08-12T08:47:51.814Z,29.35
2022-08-12T08:48:56.446Z,29.40
2022-08-12T08:50:03.102Z,29.42
2022-08-12T08:51:06.086Z,29.47
2022-08-12T08:52:08.599Z,29.51
2022-08-12T08:53:10.783Z,29.55
2022-08-12T08:54:12.669Z,29.61
2022-08-12T08:55:15.426Z,29.61
2022-08-12T08:56:16.963Z,29.64
2022-08-12T08:57:18.516Z,29.70
2022-08-12T08:58:21.273Z,29.74
2022-08-12T08:59:22.887Z,29.80
2022-08-12T09:00:24.489Z,29.84
2022-08-12T09:01:26.542Z,29.88
2022-08-12T09:02:39.373Z,29.95
2022-08-12T09:05:12.014Z,30.02
2022-08-12T09:05:12.547Z,29.98
2022-08-12T09:06:17.141Z,30.04
2022-08-12T09:08:46.646Z,30.13
2022-08-12T09:10:02.419Z,30.18
2022-08-12T09:13:06.303Z,30.30
2022-08-12T09:14:18.557Z,30.32
2022-08-12T09:15:21.728Z,30.34
2022-08-12T09:16:23.799Z,30.38
2022-08-12T09:17:26.984Z,30.41
2022-08-12T09:18:43.930Z,30.42
2022-08-12T09:19:45.896Z,30.45
2022-08-12T09:20:50.910Z,30.49
2022-08-12T09:23:59.100Z,30.49
2022-08-12T09:24:36.692Z,30.48
2022-08-12T09:25:42.673Z,30.52
2022-08-12T09:26:45.854Z,30.54
2022-08-12T09:29:12.420Z,30.57
2022-08-12T09:30:17.839Z,30.61
2022-08-12T09:32:06.991Z,30.61
2022-08-12T09:33:15.256Z,30.49
2022-08-12T09:34:28.652Z,30.53
2022-08-12T09:35:42.848Z,30.52
2022-08-12T09:37:00.274Z,30.57
2022-08-12T09:38:02.915Z,30.54
2022-08-12T09:40:00.938Z,30.55
2022-08-12T09:41:02.292Z,30.61
2022-08-12T09:42:39.028Z,30.58
2022-08-12T09:43:53.760Z,30.57
2022-08-12T09:45:23.208Z,30.64
2022-08-12T09:46:25.918Z,30.69
2022-08-12T09:47:29.635Z,30.75
2022-08-12T09:48:36.382Z,30.83
2022-08-12T09:49:42.272Z,30.88
2022-08-12T09:50:50.653Z,30.89
2022-08-12T09:51:55.186Z,30.88
2022-08-12T09:53:04.735Z,30.92
2022-08-12T09:54:30.498Z,30.95
2022-08-12T09:56:07.122Z,30.95
2022-08-12T09:57:01.707Z,30.98
2022-08-12T09:58:57.139Z,30.99
2022-08-12T10:00:15.231Z,30.95
2022-08-12T10:00:52.910Z,30.97
2022-08-12T10:02:52.944Z,31.02
2022-08-12T10:03:32.567Z,31.09
2022-08-12T10:04:34.677Z,31.16
2022-08-12T10:06:20.299Z,31.23
2022-08-12T10:07:06.845Z,31.36
2022-08-12T10:08:22.397Z,31.45
2022-08-12T10:09:28.821Z,31.47
2022-08-12T10:11:05.476Z,31.50
2022-08-12T10:12:31.415Z,31.53
2022-08-12T10:13:44.566Z,31.36
2022-08-12T10:14:50.512Z,31.31
2022-08-12T10:16:02.551Z,31.32
2022-08-12T10:17:09.035Z,31.36
2022-08-12T10:18:12.130Z,31.39
2022-08-12T10:19:17.035Z,31.39
2022-08-12T10:20:19.401Z,31.42
2022-08-12T10:21:23.196Z,31.47
2022-08-12T10:22:39.980Z,31.52
2022-08-12T10:23:45.904Z,31.50
2022-08-12T10:25:17.507Z,31.46
2022-08-12T10:26:39.545Z,31.48
2022-08-12T10:28:19.005Z,31.51
2022-08-12T10:30:40.897Z,31.57
2022-08-12T10:31:06.170Z,31.63
2022-08-12T10:32:20.728Z,31.67
2022-08-12T10:33:31.651Z,31.75
2022-08-12T10:34:33.624Z,31.78
2022-08-12T10:35:38.371Z,31.86
2022-08-12T10:36:42.830Z,31.91
2022-08-12T10:38:37.677Z,31.97
2022-08-12T10:40:00.231Z,32.02
2022-08-12T10:40:33.230Z,32.07
2022-08-12T10:41:57.091Z,32.05
2022-08-12T10:43:17.827Z,32.04
2022-08-12T10:44:19.490Z,32.07
2022-08-12T10:45:20.984Z,32.09
2022-08-12T10:46:31.249Z,32.20
2022-08-12T10:48:20.545Z,32.26
2022-08-12T10:49:05.455Z,32.29
2022-08-12T10:50:28.156Z,32.32
2022-08-12T10:52:03.420Z,32.35
2022-08-12T10:52:52.868Z,32.39
2022-08-12T10:54:00.902Z,32.42
2022-08-12T10:55:06.903Z,32.42
2022-08-12T10:56:15.483Z,32.44
2022-08-12T10:57:18.628Z,32.48
2022-08-12T10:58:38.951Z,32.52
2022-08-12T11:00:29.107Z,32.57
2022-08-12T11:01:49.062Z,32.71
2022-08-12T11:04:19.784Z,32.85
2022-08-12T11:04:26.118Z,32.91
2022-08-12T11:07:02.070Z,32.92
2022-08-12T11:07:10.320Z,32.95
2022-08-12T11:08:38.559Z,32.98
2022-08-12T11:09:41.567Z,33.00
2022-08-12T11:10:42.741Z,33.09
2022-08-12T11:12:36.982Z,33.10
2022-08-12T11:13:10.076Z,32.97
2022-08-12T11:14:48.270Z,32.95
2022-08-12T11:16:03.908Z,32.92
2022-08-12T11:17:44.244Z,32.98
2022-08-12T11:18:19.140Z,32.96
2022-08-12T11:19:22.351Z,32.97
2022-08-12T11:20:30.614Z,33.02
2022-08-12T11:21:58.492Z,33.12
2022-08-12T11:22:59.168Z,33.16
2022-08-12T11:24:01.804Z,33.22
2022-08-12T11:25:10.540Z,33.25
2022-08-12T11:26:12.932Z,33.30
2022-08-12T11:27:14.506Z,33.35
2022-08-12T11:28:16.578Z,33.40
2022-08-12T11:29:22.498Z,33.43
2022-08-12T11:30:31.234Z,33.43
2022-08-12T11:31:56.139Z,33.43
2022-08-12T11:32:55.625Z,33.47
2022-08-12T11:34:06.044Z,33.52
2022-08-12T11:35:21.655Z,33.56
2022-08-12T11:36:25.104Z,33.61
2022-08-12T11:37:27.701Z,33.66
2022-08-12T11:38:29.251Z,33.66
2022-08-12T11:40:53.340Z,33.64
2022-08-12T11:41:55.091Z,33.68
2022-08-12T11:43:18.999Z,33.65
2022-08-12T11:44:36.862Z,33.64
2022-08-12T11:45:46.978Z,33.66
2022-08-12T11:46:51.147Z,33.65
2022-08-12T11:47:55.557Z,33.69
2022-08-12T11:48:57.190Z,33.68
2022-08-12T11:49:58.727Z,33.68
2022-08-12T11:51:00.262Z,33.73
2022-08-12T11:52:01.918Z,33.76
2022-08-12T11:53:03.506Z,33.76
2022-08-12T11:54:05.335Z,33.76
2022-08-12T11:55:07.155Z,33.76
2022-08-12T11:56:11.489Z,33.75
2022-08-12T11:58:07.278Z,33.74
2022-08-12T12:00:31.817Z,33.76
2022-08-12T12:02:01.607Z,33.84
2022-08-12T12:02:39.429Z,33.83
2022-08-12T12:03:46.061Z,33.82
2022-08-12T12:04:52.900Z,33.81
2022-08-12T12:05:55.221Z,33.81
2022-08-12T12:07:07.567Z,33.79
2022-08-12T12:08:37.728Z,33.81
2022-08-12T12:09:52.620Z,33.82
2022-08-12T12:10:55.298Z,33.79
2022-08-12T12:11:57.670Z,33.72
2022-08-12T12:12:59.238Z,33.70
2022-08-12T12:14:08.202Z,33.71
2022-08-12T12:15:13.433Z,33.74
2022-08-12T12:16:15.017Z,33.76
2022-08-12T12:17:16.505Z,33.78
2022-08-12T12:18:31.109Z,33.83
2022-08-12T12:19:45.330Z,33.88
2022-08-12T12:20:48.295Z,33.92
2022-08-12T12:21:49.890Z,33.95
2022-08-12T12:22:51.407Z,33.97
2022-08-12T12:23:54.249Z,34.01
2022-08-12T12:25:13.025Z,34.05
2022-08-12T12:26:34.967Z,34.10
2022-08-12T12:28:04.437Z,34.13
2022-08-12T12:30:13.593Z,34.21
2022-08-12T12:30:30.341Z,34.23
2022-08-12T12:32:09.020Z,34.26
2022-08-12T12:32:54.805Z,34.21
2022-08-12T12:33:57.892Z,34.19
2022-08-12T12:35:44.426Z,34.18
2022-08-12T12:36:29.745Z,34.19
2022-08-12T12:38:03.667Z,34.18
2022-08-12T12:38:54.010Z,34.19
2022-08-12T12:39:57.574Z,34.19
2022-08-12T12:40:59.600Z,34.19
2022-08-12T12:42:42.865Z,34.17
2022-08-12T12:43:43.361Z,34.13
2022-08-12T12:44:58.243Z,34.07
2022-08-12T12:45:59.999Z,34.05
2022-08-12T12:47:01.668Z,34.02
2022-08-12T12:48:03.267Z,34.02
2022-08-12T12:49:10.868Z,34.04
2022-08-12T12:50:12.924Z,34.04
2022-08-12T12:51:55.165Z,34.07
2022-08-12T12:52:56.014Z,34.06
2022-08-12T12:54:08.603Z,34.04
2022-08-12T12:55:11.156Z,34.03
2022-08-12T12:56:15.959Z,33.94
2022-08-12T12:57:17.523Z,33.92
2022-08-12T12:58:37.474Z,33.92
2022-08-12T12:59:59.942Z,33.86
2022-08-12T13:01:04.830Z,33.87
2022-08-12T13:02:31.645Z,33.84
2022-08-12T13:03:48.881Z,33.85
2022-08-12T13:04:51.075Z,33.90
2022-08-12T13:05:56.314Z,33.92
2022-08-12T13:06:58.067Z,33.87
2022-08-12T13:08:01.513Z,33.78
2022-08-12T13:09:03.792Z,33.77
2022-08-12T13:10:06.712Z,33.81
2022-08-12T13:11:08.481Z,33.85
2022-08-12T13:12:10.823Z,33.93
2022-08-12T13:14:09.149Z,33.97
2022-08-12T13:14:35.136Z,34.05
2022-08-12T13:15:44.955Z,34.12
2022-08-12T13:16:47.571Z,34.14
2022-08-12T13:18:01.985Z,34.18
2022-08-12T13:19:07.725Z,34.23
2022-08-12T13:20:09.686Z,34.30
2022-08-12T13:21:15.847Z,34.30
2022-08-12T13:22:32.815Z,34.36
2022-08-12T13:23:45.075Z,34.38
2022-08-12T13:24:54.954Z,34.41
2022-08-12T13:25:58.631Z,34.45
2022-08-12T13:27:01.497Z,34.48
2022-08-12T13:28:04.586Z,34.52
2022-08-12T13:29:06.061Z,34.57
2022-08-12T13:30:13.486Z,34.60
2022-08-12T13:31:16.399Z,34.62
2022-08-12T13:32:30.740Z,34.62
2022-08-12T13:34:32.317Z,34.63
2022-08-12T13:35:04.422Z,34.55
2022-08-12T13:36:20.988Z,34.54
2022-08-12T13:37:25.610Z,34.50
2022-08-12T13:38:43.989Z,34.48
2022-08-12T13:39:53.935Z,34.50
2022-08-12T13:40:58.354Z,34.52
2022-08-12T13:41:59.854Z,34.55
2022-08-12T13:43:02.002Z,34.57
2022-08-12T13:44:04.710Z,34.60
2022-08-12T13:45:07.628Z,34.61
2022-08-12T13:46:12.323Z,34.59
2022-08-12T13:47:19.686Z,34.57
2022-08-12T13:48:21.675Z,34.52
2022-08-12T13:49:55.054Z,34.48
2022-08-12T13:50:54.830Z,34.51
2022-08-12T13:51:56.352Z,34.55
2022-08-12T13:53:23.084Z,34.58
2022-08-12T13:54:23.107Z,34.60
2022-08-12T13:55:30.951Z,34.62
2022-08-12T13:56:36.683Z,34.63
2022-08-12T13:57:47.042Z,34.65
2022-08-12T13:58:52.738Z,34.63
2022-08-12T13:59:55.348Z,34.60
2022-08-12T14:01:05.381Z,34.53
2022-08-12T14:02:13.383Z,34.47
2022-08-12T14:03:16.339Z,34.49
2022-08-12T14:04:18.241Z,34.50
2022-08-12T14:05:37.810Z,34.52
2022-08-12T14:06:40.743Z,34.52
2022-08-12T14:07:52.376Z,34.49
2022-08-12T14:08:55.671Z,34.49
2022-08-12T14:10:16.356Z,34.47
2022-08-12T14:11:19.094Z,34.48
2022-08-12T14:12:20.634Z,34.49
2022-08-12T14:14:06.258Z,34.49
2022-08-12T14:14:51.611Z,34.48
2022-08-12T14:15:53.971Z,34.45
2022-08-12T14:16:55.481Z,34.46
2022-08-12T14:18:05.480Z,34.48
2022-08-12T14:19:18.448Z,34.51
2022-08-12T14:20:24.578Z,34.53
2022-08-12T14:21:30.005Z,34.56
2022-08-12T14:22:51.805Z,34.58
2022-08-12T14:24:04.473Z,34.57
2022-08-12T14:25:08.079Z,34.54
2022-08-12T14:26:12.042Z,34.56
2022-08-12T14:27:13.792Z,34.55
2022-08-12T14:28:17.119Z,34.55
2022-08-12T14:29:21.729Z,34.55
2022-08-12T14:30:44.818Z,34.52
2022-08-12T14:32:01.937Z,34.52
2022-08-12T14:33:09.165Z,34.52
2022-08-12T14:34:12.751Z,34.53
2022-08-12T14:35:14.255Z,34.52
2022-08-12T14:36:16.312Z,34.43
2022-08-12T14:37:56.010Z,34.34
2022-08-12T14:38:41.056Z,34.28
2022-08-12T14:39:42.628Z,34.26
2022-08-12T14:40:53.135Z,34.25
2022-08-12T14:41:57.298Z,34.18
2022-08-12T14:42:59.204Z,34.07
2022-08-12T14:44:06.239Z,33.95
2022-08-12T14:45:24.702Z,33.81
2022-08-12T14:46:46.839Z,33.77
2022-08-12T14:47:51.305Z,33.79
2022-08-12T14:48:54.049Z,33.80
2022-08-12T14:50:34.165Z,33.81
2022-08-12T14:52:48.102Z,33.81
2022-08-12T14:57:00.005Z,33.85
2022-08-12T14:57:20.026Z,33.93
2022-08-12T14:58:17.272Z,33.96
2022-08-12T14:59:57.093Z,33.98
2022-08-12T15:01:21.187Z,34.05